createdAt,value
2018-07-04T00:01:12.253Z,18.20
2018-07-04T00:03:52.578Z,18.20
2018-07-04T00:06:33.985Z,18.10
2018-07-04T00:09:14.262Z,18.00
2018-07-04T00:11:54.614Z,18.00
2018-07-04T00:14:34.865Z,18.00
2018-07-04T00:17:15.093Z,17.90
2018-07-04T00:19:55.384Z,17.90
2018-07-04T00:22:36.012Z,17.80
2018-07-04T00:25:16.085Z,17.80
2018-07-04T00:27:56.345Z,17.80
2018-07-04T00:33:10.865Z,17.80
2018-07-04T00:35:50.981Z,17.70
2018-07-04T00:38:31.612Z,17.70
2018-07-04T00:41:11.796Z,17.70
2018-07-04T00:43:51.898Z,17.70
2018-07-04T00:46:32.185Z,17.70
2018-07-04T00:49:12.457Z,17.60
2018-07-04T00:51:52.858Z,17.70
2018-07-04T00:54:33.165Z,17.60
2018-07-04T00:57:13.314Z,17.60
2018-07-04T00:59:53.582Z,17.60
2018-07-04T01:02:33.953Z,17.60
2018-07-04T01:05:14.329Z,17.50
2018-07-04T01:07:54.658Z,17.40
2018-07-04T01:10:34.841Z,17.40
2018-07-04T01:13:15.062Z,17.40
2018-07-04T01:15:55.350Z,17.40
2018-07-04T01:18:35.657Z,17.40
2018-07-04T01:21:16.117Z,17.40
2018-07-04T01:23:56.213Z,17.30
2018-07-04T01:26:36.373Z,17.30
2018-07-04T01:29:16.749Z,17.30
2018-07-04T01:31:56.921Z,17.30
2018-07-04T01:34:37.337Z,17.30
2018-07-04T01:37:17.548Z,17.30
2018-07-04T01:39:57.808Z,17.40
2018-07-04T01:42:38.024Z,17.40
2018-07-04T01:45:18.275Z,17.50
2018-07-04T01:47:58.565Z,17.50
2018-07-04T01:53:30.411Z,17.40
2018-07-04T01:56:10.690Z,17.30
2018-07-04T01:58:51.029Z,17.30
2018-07-04T02:01:31.353Z,17.20
2018-07-04T02:04:11.685Z,17.20
2018-07-04T02:06:52.093Z,17.10
2018-07-04T02:09:32.362Z,17.10
2018-07-04T02:12:12.649Z,17.00
2018-07-04T02:14:53.024Z,16.90
2018-07-04T02:17:39.026Z,16.70
2018-07-04T02:20:23.113Z,16.70
2018-07-04T02:23:03.290Z,16.70
2018-07-04T02:25:43.545Z,16.70
2018-07-04T02:28:24.004Z,16.70
2018-07-04T02:31:04.328Z,16.60
2018-07-04T02:33:44.653Z,16.50
2018-07-04T02:36:24.937Z,16.50
2018-07-04T02:39:05.705Z,16.40
2018-07-04T02:41:45.866Z,16.40
2018-07-04T02:44:26.193Z,16.40
2018-07-04T02:47:10.035Z,16.40
2018-07-04T02:49:50.293Z,16.40
2018-07-04T02:52:30.621Z,16.50
2018-07-04T02:55:11.022Z,16.50
2018-07-04T02:57:51.122Z,16.50
2018-07-04T03:00:31.591Z,16.50
2018-07-04T03:03:11.810Z,16.50
2018-07-04T03:05:52.193Z,16.40
2018-07-04T03:08:32.499Z,16.40
2018-07-04T03:11:12.761Z,16.40
2018-07-04T03:13:53.007Z,16.30
2018-07-04T03:16:33.706Z,16.30
2018-07-04T03:19:13.818Z,16.30
2018-07-04T03:21:54.097Z,16.30
2018-07-04T03:24:34.488Z,16.30
2018-07-04T03:27:14.674Z,16.30
2018-07-04T03:29:58.806Z,16.30
2018-07-04T03:32:39.114Z,16.30
2018-07-04T03:35:19.269Z,16.20
2018-07-04T03:37:59.717Z,16.20
2018-07-04T03:40:40.221Z,16.20
2018-07-04T03:43:20.414Z,16.20
2018-07-04T03:46:00.717Z,16.20
2018-07-04T03:48:40.966Z,16.30
2018-07-04T03:51:21.407Z,16.30
2018-07-04T03:54:01.668Z,16.30
2018-07-04T03:56:41.889Z,16.40
2018-07-04T04:02:13.448Z,16.40
2018-07-04T04:04:53.826Z,16.50
2018-07-04T04:07:34.054Z,16.50
2018-07-04T04:10:14.458Z,16.50
2018-07-04T04:12:54.545Z,16.50
2018-07-04T04:15:34.901Z,16.60
2018-07-04T04:18:15.209Z,16.60
2018-07-04T04:20:55.611Z,16.60
2018-07-04T04:23:35.905Z,16.60
2018-07-04T04:26:16.335Z,16.70
2018-07-04T04:28:56.605Z,16.70
2018-07-04T04:31:36.804Z,16.70
2018-07-04T04:34:17.033Z,16.80
2018-07-04T04:36:57.240Z,16.80
2018-07-04T04:39:37.513Z,16.60
2018-07-04T04:42:17.890Z,16.60
2018-07-04T04:44:58.338Z,16.50
2018-07-04T04:47:38.674Z,16.50
2018-07-04T04:50:18.914Z,16.60
2018-07-04T04:52:59.233Z,16.60
2018-07-04T04:55:39.458Z,16.70
2018-07-04T04:58:19.778Z,16.80
2018-07-04T05:01:08.743Z,16.90
2018-07-04T05:03:49.169Z,17.00
2018-07-04T05:06:29.772Z,17.10
2018-07-04T05:09:09.922Z,17.30
2018-07-04T05:11:50.202Z,17.20
2018-07-04T05:14:30.569Z,17.20
2018-07-04T05:17:10.933Z,17.20
2018-07-04T05:19:51.125Z,17.30
2018-07-04T05:22:31.354Z,17.40
2018-07-04T05:25:11.717Z,17.50
2018-07-04T05:27:53.066Z,17.50
2018-07-04T05:30:33.226Z,17.60
2018-07-04T05:33:13.347Z,17.70
2018-07-04T05:35:53.935Z,17.70
2018-07-04T05:38:34.152Z,17.70
2018-07-04T05:41:14.553Z,17.70
2018-07-04T05:43:54.796Z,17.70
2018-07-04T05:46:35.001Z,17.70
2018-07-04T05:49:15.313Z,17.80
2018-07-04T05:51:55.565Z,17.80
2018-07-04T05:54:35.832Z,17.90
2018-07-04T05:57:21.209Z,18.00
2018-07-04T06:00:01.698Z,18.10
2018-07-04T06:02:41.922Z,18.20
2018-07-04T06:05:29.458Z,18.30
2018-07-04T06:08:10.773Z,18.30
2018-07-04T06:10:51.105Z,18.30
2018-07-04T06:13:31.282Z,18.40
2018-07-04T06:16:17.849Z,18.50
2018-07-04T06:19:00.380Z,18.50
2018-07-04T06:21:41.473Z,18.60
2018-07-04T06:24:22.778Z,18.70
2018-07-04T06:27:08.445Z,18.80
2018-07-04T06:29:48.517Z,18.90
2018-07-04T06:32:28.754Z,18.90
2018-07-04T06:37:55.813Z,19.20
2018-07-04T06:40:23.606Z,19.30
2018-07-04T06:42:51.418Z,19.40
2018-07-04T06:45:32.477Z,19.40
2018-07-04T06:48:00.311Z,19.50
2018-07-04T06:50:28.102Z,19.60
2018-07-04T06:52:55.982Z,19.70
2018-07-04T06:55:23.824Z,19.90
2018-07-04T06:57:51.610Z,19.90
2018-07-04T07:00:19.757Z,20.10
2018-07-04T07:02:47.591Z,20.20
2018-07-04T07:05:31.990Z,20.40
2018-07-04T07:08:12.421Z,20.50
2018-07-04T07:10:52.469Z,20.60
2018-07-04T07:13:32.745Z,20.70
2018-07-04T07:16:14.023Z,20.90
2018-07-04T07:18:56.409Z,21.00
2018-07-04T07:21:36.681Z,21.10
2018-07-04T07:24:17.018Z,21.20
2018-07-04T07:26:57.154Z,21.30
2018-07-04T07:35:29.590Z,21.60
2018-07-04T07:38:09.841Z,21.60
2018-07-04T07:40:50.220Z,21.70
2018-07-04T07:43:30.474Z,21.90
2018-07-04T07:46:11.886Z,22.00
2018-07-04T07:48:52.238Z,22.10
2018-07-04T07:51:32.493Z,22.20
2018-07-04T07:54:12.671Z,22.30
2018-07-04T07:56:52.770Z,22.40
2018-07-04T07:59:33.093Z,22.50
2018-07-04T08:02:16.937Z,22.60
2018-07-04T08:04:57.287Z,22.70
2018-07-04T08:07:47.206Z,22.80
2018-07-04T08:10:27.274Z,22.90
2018-07-04T08:13:07.783Z,23.00
2018-07-04T08:15:47.745Z,23.10
2018-07-04T08:18:29.910Z,23.20
2018-07-04T08:21:10.129Z,23.30
2018-07-04T08:23:50.349Z,23.50
2018-07-04T08:26:30.706Z,23.60
2018-07-04T08:29:11.237Z,23.70
2018-07-04T08:31:51.474Z,23.80
2018-07-04T08:34:31.781Z,23.90
2018-07-04T08:37:18.329Z,24.00
2018-07-04T08:39:58.798Z,24.20
2018-07-04T08:42:39.074Z,24.30
2018-07-04T08:45:19.277Z,24.40
2018-07-04T08:47:59.497Z,24.50
2018-07-04T08:50:39.596Z,24.60
2018-07-04T08:53:19.806Z,24.60
2018-07-04T08:56:06.314Z,24.70
2018-07-04T08:58:46.590Z,24.80
2018-07-04T09:01:27.281Z,25.00
2018-07-04T09:04:07.323Z,25.10
2018-07-04T09:06:49.814Z,25.20
2018-07-04T09:09:30.281Z,25.20
2018-07-04T09:12:10.784Z,25.30
2018-07-04T09:14:51.065Z,25.40
2018-07-04T09:17:31.341Z,25.40
2018-07-04T09:20:11.474Z,25.40
2018-07-04T09:22:51.788Z,25.50
2018-07-04T09:25:31.968Z,25.50
2018-07-04T09:28:12.145Z,25.60
2018-07-04T09:30:56.613Z,25.70
2018-07-04T09:33:36.770Z,25.80
2018-07-04T09:36:16.961Z,26.00
2018-07-04T09:38:57.505Z,26.20
2018-07-04T09:41:37.798Z,26.30
2018-07-04T09:44:18.018Z,26.50
2018-07-04T09:46:58.064Z,26.60
2018-07-04T09:49:38.147Z,26.70
2018-07-04T09:52:18.161Z,26.80
2018-07-04T09:54:58.549Z,26.90
2018-07-04T09:57:38.814Z,27.00
2018-07-04T10:00:22.969Z,27.10
2018-07-04T10:03:02.977Z,27.20
2018-07-04T10:05:42.890Z,27.40
2018-07-04T10:08:23.057Z,27.50
2018-07-04T10:11:03.421Z,27.70
2018-07-04T10:13:43.629Z,27.80
2018-07-04T10:16:23.969Z,27.90
2018-07-04T10:19:04.284Z,28.00
2018-07-04T10:21:44.450Z,28.10
2018-07-04T10:24:24.602Z,28.30
2018-07-04T10:27:04.858Z,28.50
2018-07-04T10:29:45.094Z,28.70
2018-07-04T10:32:25.282Z,28.80
2018-07-04T10:35:05.679Z,28.90
2018-07-04T10:37:46.102Z,29.00
2018-07-04T10:40:26.193Z,29.00
2018-07-04T10:43:06.255Z,28.90
2018-07-04T10:45:46.367Z,28.80
2018-07-04T10:48:29.817Z,28.70
2018-07-04T10:51:09.942Z,28.60
2018-07-04T10:53:50.257Z,28.60
2018-07-04T10:56:36.894Z,28.60
2018-07-04T10:59:16.954Z,28.50
2018-07-04T11:01:57.210Z,28.60
2018-07-04T11:04:43.703Z,28.70
2018-07-04T11:07:23.737Z,28.80
2018-07-04T11:10:03.909Z,29.00
2018-07-04T11:12:44.514Z,29.10
2018-07-04T11:15:36.614Z,29.20
2018-07-04T11:18:16.711Z,29.10
2018-07-04T11:20:56.873Z,29.10
2018-07-04T11:23:37.201Z,29.20
2018-07-04T11:26:17.337Z,29.20
2018-07-04T11:28:57.582Z,29.20
2018-07-04T11:31:37.689Z,29.30
2018-07-04T11:34:18.650Z,29.40
2018-07-04T11:36:58.797Z,29.30
2018-07-04T11:39:39.062Z,29.10
2018-07-04T11:42:19.236Z,29.10
2018-07-04T11:44:59.237Z,29.10
2018-07-04T11:47:27.061Z,29.10
2018-07-04T11:49:54.847Z,29.20
2018-07-04T11:52:22.630Z,29.30
2018-07-04T11:54:50.450Z,29.30
2018-07-04T11:57:18.326Z,29.40
2018-07-04T11:59:46.125Z,29.60
2018-07-04T12:02:13.934Z,29.80
2018-07-04T12:04:56.113Z,30.00
2018-07-04T12:07:24.191Z,30.00
2018-07-04T12:09:51.981Z,30.10
2018-07-04T12:12:24.808Z,30.20
2018-07-04T12:14:52.602Z,30.20
2018-07-04T12:17:20.409Z,30.20
2018-07-04T12:19:48.225Z,30.20
2018-07-04T12:22:33.609Z,30.30
2018-07-04T12:25:01.426Z,30.40
2018-07-04T12:27:29.181Z,30.40
2018-07-04T12:29:56.979Z,30.50
2018-07-04T12:32:24.740Z,30.50
2018-07-04T12:34:52.581Z,30.50
2018-07-04T12:37:20.450Z,30.60
2018-07-04T12:39:48.182Z,30.70
2018-07-04T12:42:15.973Z,30.70
2018-07-04T12:44:53.022Z,30.90
2018-07-04T12:47:20.981Z,31.10
2018-07-04T12:49:48.782Z,31.30
2018-07-04T12:52:16.601Z,31.30
2018-07-04T12:54:49.798Z,31.20
2018-07-04T12:57:30.102Z,31.10
2018-07-04T13:03:01.851Z,30.90
2018-07-04T13:08:39.434Z,30.80
2018-07-04T13:11:19.477Z,30.70
2018-07-04T13:14:00.964Z,30.60
2018-07-04T13:16:40.913Z,30.40
2018-07-04T13:19:21.618Z,30.20
2018-07-04T13:22:01.682Z,30.20
2018-07-04T13:27:15.958Z,30.10
2018-07-04T13:30:05.933Z,30.10
2018-07-04T13:32:46.362Z,30.20
2018-07-04T13:35:26.682Z,30.20
2018-07-04T13:38:06.698Z,30.20
2018-07-04T13:40:49.265Z,30.10
2018-07-04T13:43:29.387Z,30.00
2018-07-04T13:46:10.493Z,29.90
2018-07-04T13:48:50.739Z,29.80
2018-07-04T13:51:32.065Z,29.60
2018-07-04T13:54:12.361Z,29.50
2018-07-04T13:56:52.637Z,29.40
2018-07-04T13:59:33.006Z,29.30
2018-07-04T14:02:13.277Z,29.20
2018-07-04T14:04:53.493Z,29.10
2018-07-04T14:07:33.881Z,29.20
2018-07-04T14:10:14.054Z,29.20
2018-07-04T14:12:54.224Z,29.30
2018-07-04T14:15:34.513Z,29.40
2018-07-04T14:18:23.471Z,29.60
2018-07-04T14:21:03.797Z,29.90
2018-07-04T14:23:44.124Z,30.30
2018-07-04T14:26:24.473Z,30.50
2018-07-04T14:29:04.569Z,30.50
2018-07-04T14:31:44.727Z,30.50
2018-07-04T14:34:24.902Z,30.50
2018-07-04T14:37:05.247Z,30.60
2018-07-04T14:39:45.545Z,30.60
2018-07-04T14:42:25.981Z,30.60
2018-07-04T14:45:06.190Z,30.40
2018-07-04T14:47:46.706Z,30.20
2018-07-04T14:50:26.782Z,30.10
2018-07-04T14:53:16.497Z,30.10
2018-07-04T14:55:56.613Z,30.20
2018-07-04T14:58:36.873Z,30.20
2018-07-04T15:01:22.205Z,30.20
2018-07-04T15:04:02.520Z,30.20
2018-07-04T15:06:42.714Z,30.30
2018-07-04T15:09:23.034Z,30.40
2018-07-04T15:12:04.217Z,30.50
2018-07-04T15:14:44.477Z,30.50
2018-07-04T15:17:24.874Z,30.50
2018-07-04T15:20:05.199Z,30.40
2018-07-04T15:22:45.373Z,30.30
2018-07-04T15:25:28.702Z,30.20
2018-07-04T15:28:08.992Z,30.10
2018-07-04T15:30:49.210Z,30.00
2018-07-04T15:33:29.544Z,29.90
2018-07-04T15:36:09.920Z,29.90
2018-07-04T15:41:41.533Z,29.90
2018-07-04T15:44:21.917Z,29.80
2018-07-04T15:47:04.226Z,29.70
2018-07-04T15:49:48.722Z,29.70
2018-07-04T15:52:29.262Z,29.50
2018-07-04T15:55:09.671Z,29.30
2018-07-04T16:00:41.119Z,29.10
2018-07-04T16:03:21.409Z,29.20
2018-07-04T16:06:01.627Z,29.30
2018-07-04T16:08:41.899Z,29.30
2018-07-04T16:11:22.285Z,29.20
2018-07-04T16:14:04.939Z,29.30
2018-07-04T16:16:45.330Z,29.60
2018-07-04T16:19:25.518Z,30.30
2018-07-04T16:22:06.701Z,30.90
2018-07-04T16:24:47.053Z,31.40
2018-07-04T16:27:27.299Z,31.70
2018-07-04T16:30:07.437Z,31.70
2018-07-04T16:32:47.750Z,31.60
2018-07-04T16:35:27.986Z,31.40
2018-07-04T16:38:08.197Z,31.40
2018-07-04T16:40:48.540Z,31.50
2018-07-04T16:43:28.734Z,31.40
2018-07-04T16:46:08.869Z,31.20
2018-07-04T16:48:49.044Z,30.90
2018-07-04T16:51:29.350Z,30.50
2018-07-04T16:54:09.486Z,30.40
2018-07-04T16:56:49.677Z,30.20
2018-07-04T16:59:29.628Z,29.90
2018-07-04T17:02:09.801Z,29.50
2018-07-04T17:04:50.080Z,29.10
2018-07-04T17:07:30.286Z,28.90
2018-07-04T17:10:10.364Z,28.70
2018-07-04T17:15:24.910Z,28.60
2018-07-04T17:18:05.174Z,28.80
2018-07-04T17:20:45.409Z,29.10
2018-07-04T17:23:25.567Z,29.70
2018-07-04T17:26:05.857Z,30.40
2018-07-04T17:28:46.107Z,30.90
2018-07-04T17:31:26.369Z,31.10
2018-07-04T17:34:06.614Z,31.00
2018-07-04T17:36:46.949Z,30.90
2018-07-04T17:39:27.305Z,30.80
2018-07-04T17:42:11.750Z,30.70
2018-07-04T17:44:51.881Z,30.70
2018-07-04T17:47:32.246Z,30.50
2018-07-04T17:50:12.591Z,30.30
2018-07-04T17:52:52.893Z,30.10
2018-07-04T17:55:33.193Z,30.00
2018-07-04T17:58:13.422Z,29.80
2018-07-04T18:00:53.664Z,29.60
2018-07-04T18:03:33.977Z,29.30
2018-07-04T18:06:14.133Z,29.10
2018-07-04T18:08:54.200Z,29.00
2018-07-04T18:11:34.280Z,28.80
2018-07-04T18:14:14.592Z,28.70
2018-07-04T18:16:54.855Z,28.50
2018-07-04T18:19:34.897Z,28.40
2018-07-04T18:22:14.953Z,28.20
2018-07-04T18:24:55.142Z,28.10
2018-07-04T18:27:35.353Z,28.10
2018-07-04T18:30:15.629Z,28.00
2018-07-04T18:32:55.826Z,27.90
2018-07-04T18:35:36.033Z,27.80
2018-07-04T18:38:16.170Z,27.80
2018-07-04T18:40:56.309Z,27.60
2018-07-04T18:43:36.458Z,27.50
2018-07-04T18:46:17.640Z,27.30
2018-07-04T18:49:01.281Z,27.20
2018-07-04T18:51:41.297Z,27.30
2018-07-04T18:54:21.521Z,27.40
2018-07-04T18:57:01.658Z,27.20
2018-07-04T18:59:46.980Z,27.20
2018-07-04T19:02:27.238Z,26.90
2018-07-04T19:05:07.401Z,26.90
2018-07-04T19:07:47.533Z,26.80
2018-07-04T19:10:27.604Z,26.60
2018-07-04T19:13:07.685Z,26.50
2018-07-04T19:15:47.821Z,26.30
2018-07-04T19:18:28.133Z,26.10
2018-07-04T19:23:59.752Z,26.20
2018-07-04T19:26:40.081Z,26.10
2018-07-04T19:29:20.372Z,26.00
2018-07-04T19:32:00.757Z,25.90
2018-07-04T19:34:41.110Z,25.80
2018-07-04T19:37:21.313Z,25.60
2018-07-04T19:40:01.454Z,25.60
2018-07-04T19:42:41.552Z,25.50
2018-07-04T19:45:21.709Z,25.40
2018-07-04T19:48:01.888Z,25.30
2018-07-04T19:53:33.731Z,25.10
2018-07-04T19:56:13.832Z,25.00
2018-07-04T19:58:54.101Z,25.00
2018-07-04T20:01:34.378Z,24.90
2018-07-04T20:04:14.801Z,24.80
2018-07-04T20:06:57.090Z,24.60
2018-07-04T20:09:37.147Z,24.60
2018-07-04T20:12:17.277Z,24.50
2018-07-04T20:14:57.577Z,24.40
2018-07-04T20:17:37.773Z,24.30
2018-07-04T20:20:18.173Z,24.20
2018-07-04T20:23:02.670Z,24.20
2018-07-04T20:25:49.436Z,24.10
2018-07-04T20:28:29.718Z,24.00
2018-07-04T20:34:07.066Z,23.90
2018-07-04T20:36:47.409Z,23.80
2018-07-04T20:39:27.762Z,23.70
2018-07-04T20:42:08.185Z,23.60
2018-07-04T20:44:48.493Z,23.60
2018-07-04T20:47:28.800Z,23.50
2018-07-04T20:52:43.082Z,23.50
2018-07-04T20:55:23.511Z,23.40
2018-07-04T20:58:03.987Z,23.40
2018-07-04T21:00:48.425Z,23.30
2018-07-04T21:03:28.474Z,23.30
2018-07-04T21:06:08.768Z,23.20
2018-07-04T21:08:49.239Z,23.20
2018-07-04T21:11:29.515Z,23.20
2018-07-04T21:14:09.854Z,23.20
2018-07-04T21:16:50.078Z,23.10
2018-07-04T21:19:30.482Z,23.10
2018-07-04T21:22:10.666Z,23.00
2018-07-04T21:24:51.022Z,23.00
2018-07-04T21:27:36.287Z,23.00
2018-07-04T21:30:16.496Z,23.00
2018-07-04T21:32:56.714Z,22.90
2018-07-04T21:35:36.967Z,22.90
2018-07-04T21:38:17.168Z,22.80
2018-07-04T21:40:57.176Z,22.80
2018-07-04T21:43:37.498Z,22.80
2018-07-04T21:46:17.929Z,22.70
2018-07-04T21:48:58.145Z,22.70
2018-07-04T21:51:38.449Z,22.60
2018-07-04T21:54:18.769Z,22.60
2018-07-04T21:56:59.041Z,22.50
2018-07-04T21:59:39.238Z,22.50
2018-07-04T22:02:19.505Z,22.40
2018-07-04T22:05:01.809Z,22.40
2018-07-04T22:07:42.071Z,22.30
2018-07-04T22:10:22.173Z,22.30
2018-07-04T22:13:02.370Z,22.20
2018-07-04T22:15:42.603Z,22.10
2018-07-04T22:18:28.986Z,22.10
2018-07-04T22:21:09.189Z,22.00
2018-07-04T22:23:49.416Z,22.00
2018-07-04T22:26:29.670Z,21.90
2018-07-04T22:29:09.881Z,21.80
2018-07-04T22:31:50.061Z,21.80
2018-07-04T22:34:30.461Z,21.70
2018-07-04T22:37:10.864Z,21.70
2018-07-04T22:42:25.141Z,21.70
2018-07-04T22:45:05.473Z,21.60
2018-07-04T22:47:46.861Z,21.60
2018-07-04T22:50:27.131Z,21.50
2018-07-04T22:53:07.493Z,21.50
2018-07-04T22:55:47.829Z,21.50
2018-07-04T22:58:28.109Z,21.50
2018-07-04T23:01:08.309Z,21.40
2018-07-04T23:03:48.721Z,21.40
2018-07-04T23:06:29.085Z,21.30
2018-07-04T23:09:09.401Z,21.30
2018-07-04T23:11:49.741Z,21.20
2018-07-04T23:14:29.933Z,21.20
2018-07-04T23:17:10.278Z,21.20
2018-07-04T23:19:50.557Z,21.20
2018-07-04T23:22:30.906Z,21.20
2018-07-04T23:25:11.233Z,21.10
2018-07-04T23:27:51.501Z,21.10
2018-07-04T23:30:31.842Z,21.00
2018-07-04T23:33:12.029Z,21.00
2018-07-04T23:35:52.449Z,20.90
2018-07-04T23:38:32.621Z,20.90
2018-07-04T23:41:12.923Z,20.80
2018-07-04T23:46:31.177Z,20.60
2018-07-04T23:49:11.388Z,20.50
2018-07-04T23:51:51.693Z,20.50
2018-07-04T23:54:31.725Z,20.40
2018-07-04T23:57:11.990Z,20.40
2018-07-04T23:59:52.469Z,20.40
